sensor_id;sensor_type;location;lat;lon;timestamp;pressure;altitude;pressure_sealevel;temperature;humidity
7333;BME280;3707;43.618;25.342;2023-04-02T00:01:12;98963.91;;;11.81;100.00
7333;BME280;3707;43.618;25.342;2023-04-02T00:04:04;98958.63;;;11.95;100.00
7333;BME280;3707;43.618;25.342;2023-04-02T00:06:34;98950.06;;;11.83;100.00
7333;BME280;3707;43.618;25.342;2023-04-02T00:09:28;98944.91;;;11.79;100.00
7333;BME280;3707;43.618;25.342;2023-04-02T00:11:57;98976.81;;;11.93;100.00
7333;BME280;3707;43.618;25.342;2023-04-02T00:14:26;98963.91;;;11.81;100.00
7333;BME280;3707;43.618;25.342;2023-04-02T00:16:55;98969.06;;;11.90;100.00
7333;BME280;3707;43.618;25.342;2023-04-02T00:19:29;98955.97;;;11.99;100.00
7333;BME280;3707;43.618;25.342;2023-04-02T00:21:58;98929.38;;;11.70;100.00
7333;BME280;3707;43.618;25.342;2023-04-02T00:24:25;98942.34;;;11.70;100.00
7333;BME280;3707;43.618;25.342;2023-04-02T00:26:53;98944.88;;;11.82;100.00
7333;BME280;3707;43.618;25.342;2023-04-02T00:29:20;98940.63;;;11.69;100.00
7333;BME280;3707;43.618;25.342;2023-04-02T00:31:49;98936.28;;;11.75;100.00
7333;BME280;3707;43.618;25.342;2023-04-02T00:34:19;98934.41;;;11.91;100.00
7333;BME280;3707;43.618;25.342;2023-04-02T00:36:49;98936.19;;;11.86;100.00
7333;BME280;3707;43.618;25.342;2023-04-02T00:39:19;98905.13;;;11.68;100.00
7333;BME280;3707;43.618;25.342;2023-04-02T00:41:47;98922.44;;;11.69;100.00
7333;BME280;3707;43.618;25.342;2023-04-02T00:44:19;98904.31;;;11.64;100.00
7333;BME280;3707;43.618;25.342;2023-04-02T00:46:48;98923.22;;;11.81;100.00
7333;BME280;3707;43.618;25.342;2023-04-02T00:49:20;98920.63;;;11.83;100.00
7333;BME280;3707;43.618;25.342;2023-04-02T00:51:52;98924.16;;;11.76;100.00
7333;BME280;3707;43.618;25.342;2023-04-02T00:54:22;98900.84;;;11.65;100.00
7333;BME280;3707;43.618;25.342;2023-04-02T00:56:52;98900.81;;;11.67;100.00
7333;BME280;3707;43.618;25.342;2023-04-02T00:59:24;98899.94;;;11.71;100.00
7333;BME280;3707;43.618;25.342;2023-04-02T01:01:53;98904.28;;;11.73;100.00
7333;BME280;3707;43.618;25.342;2023-04-02T01:04:31;98911.16;;;11.76;100.00
7333;BME280;3707;43.618;25.342;2023-04-02T01:07:02;98911.19;;;11.73;100.00
7333;BME280;3707;43.618;25.342;2023-04-02T01:09:47;98932.75;;;11.81;100.00
7333;BME280;3707;43.618;25.342;2023-04-02T01:12:43;98938.91;;;11.69;100.00
7333;BME280;3707;43.618;25.342;2023-04-02T01:15:17;98937.19;;;11.65;100.00
7333;BME280;3707;43.618;25.342;2023-04-02T01:18:06;98939.75;;;11.67;100.00
7333;BME280;3707;43.618;25.342;2023-04-02T01:21:06;98945.88;;;11.60;100.00
7333;BME280;3707;43.618;25.342;2023-04-02T01:23:45;98943.25;;;11.66;100.00
7333;BME280;3707;43.618;25.342;2023-04-02T01:26:26;98940.69;;;11.60;100.00
7333;BME280;3707;43.618;25.342;2023-04-02T01:29:06;98937.16;;;11.67;100.00
7333;BME280;3707;43.618;25.342;2023-04-02T01:31:35;98944.16;;;11.59;100.00
7333;BME280;3707;43.618;25.342;2023-04-02T01:34:05;98952.81;;;11.58;100.00
7333;BME280;3707;43.618;25.342;2023-04-02T01:36:39;98942.44;;;11.58;100.00
7333;BME280;3707;43.618;25.342;2023-04-02T01:39:19;98945.09;;;11.52;100.00
7333;BME280;3707;43.618;25.342;2023-04-02T01:41:53;98946.81;;;11.50;100.00
7333;BME280;3707;43.618;25.342;2023-04-02T01:44:28;98945.94;;;11.51;100.00
7333;BME280;3707;43.618;25.342;2023-04-02T01:47:01;98942.44;;;11.58;100.00
7333;BME280;3707;43.618;25.342;2023-04-02T01:49:30;98960.63;;;11.59;100.00
7333;BME280;3707;43.618;25.342;2023-04-02T01:51:58;98938.13;;;11.58;100.00
7333;BME280;3707;43.618;25.342;2023-04-02T01:54:25;98959.69;;;11.66;100.00
7333;BME280;3707;43.618;25.342;2023-04-02T01:56:53;98985.59;;;11.75;100.00
7333;BME280;3707;43.618;25.342;2023-04-02T01:59:22;98953.66;;;11.63;100.00
7333;BME280;3707;43.618;25.342;2023-04-02T02:01:53;98973.38;;;11.88;100.00
7333;BME280;3707;43.618;25.342;2023-04-02T02:04:23;98962.25;;;11.77;100.00
7333;BME280;3707;43.618;25.342;2023-04-02T02:06:50;98981.22;;;11.83;100.00
7333;BME280;3707;43.618;25.342;2023-04-02T02:09:20;98994.13;;;11.94;100.00
7333;BME280;3707;43.618;25.342;2023-04-02T02:11:49;98959.63;;;11.78;100.00
7333;BME280;3707;43.618;25.342;2023-04-02T02:14:18;98976.00;;;11.85;100.00
7333;BME280;3707;43.618;25.342;2023-04-02T02:16:46;98987.22;;;11.88;100.00
7333;BME280;3707;43.618;25.342;2023-04-02T02:19:22;98993.19;;;12.04;100.00
7333;BME280;3707;43.618;25.342;2023-04-02T02:21:53;98997.59;;;11.95;100.00
7333;BME280;3707;43.618;25.342;2023-04-02T02:24:23;98992.41;;;11.93;100.00
7333;BME280;3707;43.618;25.342;2023-04-02T02:27:02;98981.97;;;11.96;100.00
7333;BME280;3707;43.618;25.342;2023-04-02T02:29:34;99003.59;;;12.00;100.00
7333;BME280;3707;43.618;25.342;2023-04-02T02:32:03;99000.16;;;11.96;100.00
7333;BME280;3707;43.618;25.342;2023-04-02T02:34:36;99009.56;;;12.12;100.00
7333;BME280;3707;43.618;25.342;2023-04-02T02:37:11;99006.16;;;12.04;100.00
7333;BME280;3707;43.618;25.342;2023-04-02T02:39:42;99013.06;;;12.08;100.00
7333;BME280;3707;43.618;25.342;2023-04-02T02:42:13;98983.78;;;11.86;100.00
7333;BME280;3707;43.618;25.342;2023-04-02T02:44:43;99005.28;;;12.04;100.00
7333;BME280;3707;43.618;25.342;2023-04-02T02:47:14;99017.44;;;12.00;100.00
7333;BME280;3707;43.618;25.342;2023-04-02T02:49:44;99022.63;;;12.05;100.00
7333;BME280;3707;43.618;25.342;2023-04-02T02:52:15;99021.81;;;11.92;100.00
7333;BME280;3707;43.618;25.342;2023-04-02T02:54:44;99029.75;;;11.75;100.00
7333;BME280;3707;43.618;25.342;2023-04-02T02:57:14;99020.25;;;11.64;100.00
7333;BME280;3707;43.618;25.342;2023-04-02T02:59:44;99001.41;;;11.36;100.00
7333;BME280;3707;43.618;25.342;2023-04-02T03:02:12;99002.31;;;11.30;100.00
7333;BME280;3707;43.618;25.342;2023-04-02T03:04:40;99003.13;;;11.35;100.00
7333;BME280;3707;43.618;25.342;2023-04-02T03:07:14;98976.38;;;11.24;100.00
7333;BME280;3707;43.618;25.342;2023-04-02T03:09:47;98995.28;;;11.48;100.00
7333;BME280;3707;43.618;25.342;2023-04-02T03:12:40;99011.63;;;11.62;100.00
7333;BME280;3707;43.618;25.342;2023-04-02T03:15:16;98981.41;;;11.49;100.00
7333;BME280;3707;43.618;25.342;2023-04-02T03:17:48;99008.19;;;11.60;100.00
7333;BME280;3707;43.618;25.342;2023-04-02T03:20:19;99006.47;;;11.59;100.00
7333;BME280;3707;43.618;25.342;2023-04-02T03:22:55;98978.84;;;11.45;100.00
7333;BME280;3707;43.618;25.342;2023-04-02T03:25:28;99009.06;;;11.57;100.00
7333;BME280;3707;43.618;25.342;2023-04-02T03:28:00;98997.06;;;11.41;100.00
7333;BME280;3707;43.618;25.342;2023-04-02T03:30:37;99016.81;;;11.66;100.00
7333;BME280;3707;43.618;25.342;2023-04-02T03:33:11;98999.53;;;11.61;100.00
7333;BME280;3707;43.618;25.342;2023-04-02T03:35:42;99024.63;;;11.62;100.00
7333;BME280;3707;43.618;25.342;2023-04-02T03:38:14;99004.75;;;11.58;100.00
7333;BME280;3707;43.618;25.342;2023-04-02T03:40:44;99021.19;;;11.58;100.00
7333;BME280;3707;43.618;25.342;2023-04-02T03:43:20;99020.28;;;11.62;100.00
7333;BME280;3707;43.618;25.342;2023-04-02T03:45:50;99011.69;;;11.56;100.00
7333;BME280;3707;43.618;25.342;2023-04-02T03:48:24;99000.44;;;11.55;100.00
7333;BME280;3707;43.618;25.342;2023-04-02T03:50:56;99028.94;;;11.61;100.00
7333;BME280;3707;43.618;25.342;2023-04-02T03:53:27;99029.00;;;11.52;100.00
7333;BME280;3707;43.618;25.342;2023-04-02T03:55:57;99035.03;;;11.54;100.00
7333;BME280;3707;43.618;25.342;2023-04-02T03:58:27;99017.72;;;11.58;100.00
7333;BME280;3707;43.618;25.342;2023-04-02T04:01:00;99050.53;;;11.68;100.00
7333;BME280;3707;43.618;25.342;2023-04-02T04:03:36;99042.78;;;11.66;100.00
7333;BME280;3707;43.618;25.342;2023-04-02T04:06:06;99057.47;;;11.66;100.00
7333;BME280;3707;43.618;25.342;2023-04-02T04:08:40;99055.75;;;11.71;100.00
7333;BME280;3707;43.618;25.342;2023-04-02T04:11:13;99065.19;;;11.81;100.00
7333;BME280;3707;43.618;25.342;2023-04-02T04:13:47;99045.34;;;11.77;100.00
7333;BME280;3707;43.618;25.342;2023-04-02T04:16:20;99061.75;;;11.80;100.00
7333;BME280;3707;43.618;25.342;2023-04-02T04:18:51;99073.81;;;11.84;100.00
7333;BME280;3707;43.618;25.342;2023-04-02T04:21:23;99080.78;;;11.84;100.00
7333;BME280;3707;43.618;25.342;2023-04-02T04:24:00;99078.97;;;11.93;100.00
7333;BME280;3707;43.618;25.342;2023-04-02T04:26:37;99085.06;;;11.88;100.00
7333;BME280;3707;43.618;25.342;2023-04-02T04:29:14;99097.19;;;11.89;100.00
7333;BME280;3707;43.618;25.342;2023-04-02T04:31:46;99078.16;;;11.87;100.00
7333;BME280;3707;43.618;25.342;2023-04-02T04:34:17;99095.38;;;12.00;100.00
7333;BME280;3707;43.618;25.342;2023-04-02T04:36:49;99092.81;;;11.92;100.00
7333;BME280;3707;43.618;25.342;2023-04-02T04:39:25;99101.44;;;12.01;100.00
7333;BME280;3707;43.618;25.342;2023-04-02T04:41:56;99097.13;;;11.95;100.00
7333;BME280;3707;43.618;25.342;2023-04-02T04:44:38;99075.47;;;12.01;100.00
7333;BME280;3707;43.618;25.342;2023-04-02T04:47:09;99114.34;;;12.14;100.00
7333;BME280;3707;43.618;25.342;2023-04-02T04:49:41;99103.03;;;12.17;100.00
7333;BME280;3707;43.618;25.342;2023-04-02T04:52:13;99082.38;;;12.03;100.00
7333;BME280;3707;43.618;25.342;2023-04-02T04:54:45;99102.25;;;12.07;100.00
7333;BME280;3707;43.618;25.342;2023-04-02T04:57:26;99090.16;;;12.03;100.00
7333;BME280;3707;43.618;25.342;2023-04-02T04:59:58;99114.28;;;12.20;100.00
7333;BME280;3707;43.618;25.342;2023-04-02T05:02:29;99121.25;;;12.20;100.00
7333;BME280;3707;43.618;25.342;2023-04-02T05:04:59;99123.81;;;12.23;100.00
7333;BME280;3707;43.618;25.342;2023-04-02T05:07:29;99111.72;;;12.17;100.00
7333;BME280;3707;43.618;25.342;2023-04-02T05:10:03;99131.56;;;12.29;100.00
7333;BME280;3707;43.618;25.342;2023-04-02T05:12:36;99140.19;;;12.31;100.00
7333;BME280;3707;43.618;25.342;2023-04-02T05:15:11;99142.72;;;12.43;100.00
7333;BME280;3707;43.618;25.342;2023-04-02T05:17:45;99142.72;;;12.45;100.00
7333;BME280;3707;43.618;25.342;2023-04-02T05:20:20;99134.94;;;12.40;100.00
7333;BME280;3707;43.618;25.342;2023-04-02T05:22:52;99165.28;;;12.38;100.00
7333;BME280;3707;43.618;25.342;2023-04-02T05:25:24;99163.53;;;12.38;100.00
7333;BME280;3707;43.618;25.342;2023-04-02T05:27:56;99162.72;;;12.33;100.00
7333;BME280;3707;43.618;25.342;2023-04-02T05:30:39;99166.13;;;12.40;100.00
7333;BME280;3707;43.618;25.342;2023-04-02T05:33:18;99160.00;;;12.50;100.00
7333;BME280;3707;43.618;25.342;2023-04-02T05:35:50;99171.31;;;12.45;100.00
7333;BME280;3707;43.618;25.342;2023-04-02T05:38:20;99157.50;;;12.36;100.00
7333;BME280;3707;43.618;25.342;2023-04-02T05:40:53;99152.34;;;12.29;100.00
7333;BME280;3707;43.618;25.342;2023-04-02T05:43:24;99175.50;;;12.61;100.00
7333;BME280;3707;43.618;25.342;2023-04-02T05:45:54;99175.44;;;12.67;100.00
7333;BME280;3707;43.618;25.342;2023-04-02T05:48:27;99169.47;;;12.56;100.00
7333;BME280;3707;43.618;25.342;2023-04-02T05:50:58;99178.88;;;12.72;100.00
7333;BME280;3707;43.618;25.342;2023-04-02T05:53:28;99168.53;;;12.69;100.00
7333;BME280;3707;43.618;25.342;2023-04-02T05:56:01;99181.50;;;12.73;100.00
7333;BME280;3707;43.618;25.342;2023-04-02T05:58:33;99184.94;;;12.77;100.00
7333;BME280;3707;43.618;25.342;2023-04-02T06:01:20;99185.00;;;12.68;100.00
7333;BME280;3707;43.618;25.342;2023-04-02T06:03:54;99187.53;;;12.77;100.00
7333;BME280;3707;43.618;25.342;2023-04-02T06:06:30;99186.59;;;12.81;100.00
7333;BME280;3707;43.618;25.342;2023-04-02T06:09:06;99188.38;;;12.79;100.00
7333;BME280;3707;43.618;25.342;2023-04-02T06:11:40;99181.44;;;12.78;100.00
7333;BME280;3707;43.618;25.342;2023-04-02T06:14:11;99189.31;;;12.67;100.00
7333;BME280;3707;43.618;25.342;2023-04-02T06:16:38;99179.72;;;12.74;100.00
7333;BME280;3707;43.618;25.342;2023-04-02T06:19:08;99181.41;;;12.84;100.00
7333;BME280;3707;43.618;25.342;2023-04-02T06:21:43;99169.13;;;12.98;100.00
7333;BME280;3707;43.618;25.342;2023-04-02T06:24:13;99189.84;;;13.07;100.00
7333;BME280;3707;43.618;25.342;2023-04-02T06:26:44;99162.19;;;12.97;100.00
7333;BME280;3707;43.618;25.342;2023-04-02T06:29:17;99185.41;;;13.23;100.00
7333;BME280;3707;43.618;25.342;2023-04-02T06:31:47;99185.41;;;13.20;100.00
7333;BME280;3707;43.618;25.342;2023-04-02T06:34:17;99184.47;;;13.28;100.00
7333;BME280;3707;43.618;25.342;2023-04-02T06:36:46;99189.56;;;13.40;100.00
7333;BME280;3707;43.618;25.342;2023-04-02T06:39:18;99171.41;;;13.31;100.00
7333;BME280;3707;43.618;25.342;2023-04-02T06:41:53;99192.91;;;13.49;100.00
7333;BME280;3707;43.618;25.342;2023-04-02T06:44:23;99201.44;;;13.66;100.00
7333;BME280;3707;43.618;25.342;2023-04-02T06:46:54;99204.72;;;13.78;100.00
7333;BME280;3707;43.618;25.342;2023-04-02T06:49:25;99201.03;;;13.96;100.00
7333;BME280;3707;43.618;25.342;2023-04-02T06:51:54;99208.28;;;13.73;100.00
7333;BME280;3707;43.618;25.342;2023-04-02T06:54:22;99206.38;;;13.87;100.00
7333;BME280;3707;43.618;25.342;2023-04-02T06:56:52;99207.13;;;13.98;100.00
7333;BME280;3707;43.618;25.342;2023-04-02T06:59:21;99212.09;;;14.13;100.00
7333;BME280;3707;43.618;25.342;2023-04-02T07:01:50;99219.09;;;14.11;100.00
7333;BME280;3707;43.618;25.342;2023-04-02T07:04:19;99211.19;;;14.17;100.00
7333;BME280;3707;43.618;25.342;2023-04-02T07:06:46;99225.09;;;14.16;100.00
7333;BME280;3707;43.618;25.342;2023-04-02T07:09:13;99234.69;;;14.13;100.00
7333;BME280;3707;43.618;25.342;2023-04-02T07:11:40;99233.88;;;14.11;100.00
7333;BME280;3707;43.618;25.342;2023-04-02T07:14:10;99210.56;;;13.99;100.00
7333;BME280;3707;43.618;25.342;2023-04-02T07:16:36;99250.19;;;14.25;100.00
7333;BME280;3707;43.618;25.342;2023-04-02T07:19:03;99215.53;;;14.18;100.00
7333;BME280;3707;43.618;25.342;2023-04-02T07:21:30;99251.84;;;14.32;100.00
7333;BME280;3707;43.618;25.342;2023-04-02T07:23:57;99250.63;;;14.59;99.37
7333;BME280;3707;43.618;25.342;2023-04-02T07:26:26;99234.19;;;14.52;97.31
7333;BME280;3707;43.618;25.342;2023-04-02T07:28:53;99243.53;;;14.67;95.52
7333;BME280;3707;43.618;25.342;2023-04-02T07:31:23;99270.91;;;14.98;93.73
7333;BME280;3707;43.618;25.342;2023-04-02T07:33:51;99260.59;;;14.89;94.03
7333;BME280;3707;43.618;25.342;2023-04-02T07:36:20;99272.63;;;14.99;91.69
7333;BME280;3707;43.618;25.342;2023-04-02T07:38:47;99271.97;;;14.86;91.94
7333;BME280;3707;43.618;25.342;2023-04-02T07:41:14;99268.50;;;14.84;95.28
7333;BME280;3707;43.618;25.342;2023-04-02T07:43:42;99276.91;;;15.03;92.15
7333;BME280;3707;43.618;25.342;2023-04-02T07:46:09;99282.28;;;14.94;90.96
7333;BME280;3707;43.618;25.342;2023-04-02T07:48:39;99279.50;;;15.03;91.53
7333;BME280;3707;43.618;25.342;2023-04-02T07:51:14;99257.75;;;15.04;89.93
7333;BME280;3707;43.618;25.342;2023-04-02T07:53:41;99262.88;;;15.10;89.40
7333;BME280;3707;43.618;25.342;2023-04-02T07:56:13;99261.19;;;15.08;90.72
7333;BME280;3707;43.618;25.342;2023-04-02T07:58:40;99286.13;;;15.25;89.20
7333;BME280;3707;43.618;25.342;2023-04-02T08:01:14;99295.41;;;15.43;86.80
7333;BME280;3707;43.618;25.342;2023-04-02T08:03:43;99287.09;;;15.18;88.08
7333;BME280;3707;43.618;25.342;2023-04-02T08:06:10;99270.63;;;15.13;86.61
7333;BME280;3707;43.618;25.342;2023-04-02T08:08:37;99289.41;;;15.36;86.60
7333;BME280;3707;43.618;25.342;2023-04-02T08:11:05;99285.13;;;15.31;86.76
7333;BME280;3707;43.618;25.342;2023-04-02T08:13:32;99280.91;;;15.25;87.49
7333;BME280;3707;43.618;25.342;2023-04-02T08:15:58;99253.56;;;14.94;86.79
7333;BME280;3707;43.618;25.342;2023-04-02T08:18:25;99256.81;;;15.08;87.55
7333;BME280;3707;43.618;25.342;2023-04-02T08:20:54;99264.84;;;15.47;85.98
7333;BME280;3707;43.618;25.342;2023-04-02T08:23:21;99287.81;;;15.80;84.71
7333;BME280;3707;43.618;25.342;2023-04-02T08:25:49;99288.19;;;16.03;82.97
7333;BME280;3707;43.618;25.342;2023-04-02T08:28:16;99237.28;;;15.78;81.58
7333;BME280;3707;43.618;25.342;2023-04-02T08:30:43;99290.00;;;16.01;81.00
7333;BME280;3707;43.618;25.342;2023-04-02T08:33:10;99298.28;;;16.21;79.20
7333;BME280;3707;43.618;25.342;2023-04-02T08:35:37;99292.28;;;16.16;78.53
7333;BME280;3707;43.618;25.342;2023-04-02T08:38:05;99291.63;;;16.05;78.69
7333;BME280;3707;43.618;25.342;2023-04-02T08:40:35;99302.09;;;16.05;77.93
7333;BME280;3707;43.618;25.342;2023-04-02T08:43:27;99293.72;;;16.32;77.52
7333;BME280;3707;43.618;25.342;2023-04-02T08:46:03;99298.66;;;16.45;76.30
7333;BME280;3707;43.618;25.342;2023-04-02T08:48:34;99294.19;;;16.51;78.86
7333;BME280;3707;43.618;25.342;2023-04-02T08:51:04;99298.50;;;16.54;77.57
7333;BME280;3707;43.618;25.342;2023-04-02T08:53:34;99297.50;;;16.59;76.87
7333;BME280;3707;43.618;25.342;2023-04-02T08:56:08;99293.69;;;16.74;76.78
7333;BME280;3707;43.618;25.342;2023-04-02T08:58:43;99290.44;;;16.63;77.72
7333;BME280;3707;43.618;25.342;2023-04-02T09:01:20;99292.41;;;16.52;78.98
7333;BME280;3707;43.618;25.342;2023-04-02T09:03:53;99295.50;;;16.72;77.80
7333;BME280;3707;43.618;25.342;2023-04-02T09:06:22;99297.91;;;16.81;78.18
7333;BME280;3707;43.618;25.342;2023-04-02T09:08:52;99298.03;;;16.75;79.34
7333;BME280;3707;43.618;25.342;2023-04-02T09:11:23;99288.59;;;16.69;75.40
7333;BME280;3707;43.618;25.342;2023-04-02T09:13:54;99292.25;;;16.61;76.36
7333;BME280;3707;43.618;25.342;2023-04-02T09:16:33;99302.16;;;16.85;76.49
7333;BME280;3707;43.618;25.342;2023-04-02T09:19:13;99310.78;;;16.90;75.04
7333;BME280;3707;43.618;25.342;2023-04-02T09:21:44;99315.41;;;17.16;74.55
7333;BME280;3707;43.618;25.342;2023-04-02T09:24:14;99311.09;;;17.15;73.35
7333;BME280;3707;43.618;25.342;2023-04-02T09:26:41;99305.16;;;17.42;72.51
7333;BME280;3707;43.618;25.342;2023-04-02T09:29:26;99307.41;;;17.56;69.06
7333;BME280;3707;43.618;25.342;2023-04-02T09:32:00;99307.16;;;17.68;68.47
7333;BME280;3707;43.618;25.342;2023-04-02T09:34:29;99303.78;;;17.63;68.51
7333;BME280;3707;43.618;25.342;2023-04-02T09:37:06;99309.09;;;17.60;69.15
7333;BME280;3707;43.618;25.342;2023-04-02T09:39:34;99295.09;;;17.93;69.46
7333;BME280;3707;43.618;25.342;2023-04-02T09:42:05;99279.56;;;17.87;67.85
7333;BME280;3707;43.618;25.342;2023-04-02T09:44:33;99290.75;;;17.92;66.30
7333;BME280;3707;43.618;25.342;2023-04-02T09:47:02;99258.59;;;17.52;66.27
7333;BME280;3707;43.618;25.342;2023-04-02T09:49:31;99297.97;;;17.84;68.09
7333;BME280;3707;43.618;25.342;2023-04-02T09:52:07;99280.81;;;18.03;65.60
7333;BME280;3707;43.618;25.342;2023-04-02T09:54:35;99290.75;;;17.92;64.73
7333;BME280;3707;43.618;25.342;2023-04-02T09:57:17;99292.47;;;17.93;65.55
7333;BME280;3707;43.618;25.342;2023-04-02T10:00:06;99288.44;;;18.12;66.56
7333;BME280;3707;43.618;25.342;2023-04-02T10:02:33;99297.47;;;18.02;65.21
7333;BME280;3707;43.618;25.342;2023-04-02T10:05:02;99285.34;;;17.98;64.18
7333;BME280;3707;43.618;25.342;2023-04-02T10:07:33;99282.28;;;18.13;62.61
7333;BME280;3707;43.618;25.342;2023-04-02T10:10:17;99298.31;;;18.33;59.89
7333;BME280;3707;43.618;25.342;2023-04-02T10:12:49;99303.84;;;18.24;59.54
7333;BME280;3707;43.618;25.342;2023-04-02T10:15:22;99277.06;;;18.43;58.94
7333;BME280;3707;43.618;25.342;2023-04-02T10:17:58;99302.56;;;18.68;58.16
7333;BME280;3707;43.618;25.342;2023-04-02T10:20:28;99281.41;;;18.73;58.14
7333;BME280;3707;43.618;25.342;2023-04-02T10:22:57;99293.06;;;18.92;58.74
7333;BME280;3707;43.618;25.342;2023-04-02T10:25:28;99304.63;;;19.14;55.82
7333;BME280;3707;43.618;25.342;2023-04-02T10:28:03;99299.91;;;18.98;56.33
7333;BME280;3707;43.618;25.342;2023-04-02T10:30:39;99290.56;;;18.88;56.60
7333;BME280;3707;43.618;25.342;2023-04-02T10:33:17;99290.38;;;18.66;56.77
7333;BME280;3707;43.618;25.342;2023-04-02T10:35:52;99280.09;;;18.29;57.91
7333;BME280;3707;43.618;25.342;2023-04-02T10:38:34;99278.41;;;18.26;58.90
7333;BME280;3707;43.618;25.342;2023-04-02T10:41:12;99285.25;;;18.32;56.14
7333;BME280;3707;43.618;25.342;2023-04-02T10:43:55;99300.16;;;18.90;53.64
7333;BME280;3707;43.618;25.342;2023-04-02T10:46:29;99264.66;;;18.48;51.15
7333;BME280;3707;43.618;25.342;2023-04-02T10:49:04;99304.53;;;18.90;52.64
7333;BME280;3707;43.618;25.342;2023-04-02T10:51:39;99296.88;;;19.10;52.93
7333;BME280;3707;43.618;25.342;2023-04-02T10:54:18;99303.91;;;19.09;52.34
7333;BME280;3707;43.618;25.342;2023-04-02T10:57:02;99292.78;;;19.27;52.09
7333;BME280;3707;43.618;25.342;2023-04-02T10:59:33;99289.88;;;19.37;53.00
7333;BME280;3707;43.618;25.342;2023-04-02T11:02:04;99287.47;;;19.57;50.67
7333;BME280;3707;43.618;25.342;2023-04-02T11:04:34;99277.38;;;19.69;50.42
7333;BME280;3707;43.618;25.342;2023-04-02T11:07:06;99287.25;;;19.63;49.89
7333;BME280;3707;43.618;25.342;2023-04-02T11:09:37;99290.47;;;19.96;49.75
7333;BME280;3707;43.618;25.342;2023-04-02T11:12:18;99271.75;;;20.28;50.42
7333;BME280;3707;43.618;25.342;2023-04-02T11:14:48;99286.28;;;20.15;49.55
7333;BME280;3707;43.618;25.342;2023-04-02T11:17:18;99293.63;;;20.05;48.72
7333;BME280;3707;43.618;25.342;2023-04-02T11:19:45;99289.94;;;19.86;49.62
7333;BME280;3707;43.618;25.342;2023-04-02T11:22:14;99257.28;;;19.67;49.25
7333;BME280;3707;43.618;25.342;2023-04-02T11:24:43;99282.47;;;19.99;49.79
7333;BME280;3707;43.618;25.342;2023-04-02T11:27:24;99278.31;;;20.16;50.36
7333;BME280;3707;43.618;25.342;2023-04-02T11:30:00;99275.75;;;20.15;49.72
7333;BME280;3707;43.618;25.342;2023-04-02T11:32:32;99284.34;;;19.95;50.24
7333;BME280;3707;43.618;25.342;2023-04-02T11:35:19;99282.22;;;20.05;50.71
7333;BME280;3707;43.618;25.342;2023-04-02T11:37:48;99286.19;;;20.16;50.58
7333;BME280;3707;43.618;25.342;2023-04-02T11:40:44;99279.19;;;19.92;50.62
7333;BME280;3707;43.618;25.342;2023-04-02T11:46:38;99280.81;;;19.47;50.34
7333;BME280;3707;43.618;25.342;2023-04-02T11:49:37;99284.34;;;19.46;48.88
7333;BME280;3707;43.618;25.342;2023-04-02T11:52:19;99261.47;;;19.48;49.11
7333;BME280;3707;43.618;25.342;2023-04-02T11:54:54;99269.59;;;19.66;49.08
7333;BME280;3707;43.618;25.342;2023-04-02T11:57:31;99197.16;;;19.31;48.61
7333;BME280;3707;43.618;25.342;2023-04-02T12:00:14;99268.78;;;19.89;46.95
7333;BME280;3707;43.618;25.342;2023-04-02T12:02:58;99269.47;;;19.94;47.13
7333;BME280;3707;43.618;25.342;2023-04-02T12:05:33;99273.59;;;20.01;47.06
7333;BME280;3707;43.618;25.342;2023-04-02T12:08:31;99284.13;;;20.01;46.76
7333;BME280;3707;43.618;25.342;2023-04-02T12:11:01;99281.97;;;19.88;47.10
7333;BME280;3707;43.618;25.342;2023-04-02T12:13:55;99271.28;;;19.69;47.60
7333;BME280;3707;43.618;25.342;2023-04-02T12:16:23;99224.06;;;19.40;48.78
7333;BME280;3707;43.618;25.342;2023-04-02T12:18:58;99198.66;;;19.39;49.39
7333;BME280;3707;43.618;25.342;2023-04-02T12:21:27;99266.44;;;19.57;48.66
7333;BME280;3707;43.618;25.342;2023-04-02T12:23:57;99258.84;;;19.21;49.23
7333;BME280;3707;43.618;25.342;2023-04-02T12:26:32;99267.22;;;19.33;49.22
7333;BME280;3707;43.618;25.342;2023-04-02T12:29:15;99270.16;;;19.50;48.92
7333;BME280;3707;43.618;25.342;2023-04-02T12:31:42;99268.44;;;19.49;48.82
7333;BME280;3707;43.618;25.342;2023-04-02T12:34:14;99241.41;;;19.70;48.43
7333;BME280;3707;43.618;25.342;2023-04-02T12:36:51;99203.13;;;19.86;47.82
7333;BME280;3707;43.618;25.342;2023-04-02T12:39:18;99242.44;;;20.14;48.13
7333;BME280;3707;43.618;25.342;2023-04-02T12:41:45;99261.91;;;20.56;48.12
7333;BME280;3707;43.618;25.342;2023-04-02T12:44:13;99268.38;;;20.48;46.00
7333;BME280;3707;43.618;25.342;2023-04-02T12:46:42;99265.34;;;19.87;47.27
7333;BME280;3707;43.618;25.342;2023-04-02T12:49:21;99261.03;;;20.09;47.68
7333;BME280;3707;43.618;25.342;2023-04-02T12:51:49;99251.63;;;20.02;47.63
7333;BME280;3707;43.618;25.342;2023-04-02T12:54:17;99258.69;;;19.77;48.32
7333;BME280;3707;43.618;25.342;2023-04-02T12:56:45;99246.91;;;19.87;48.28
7333;BME280;3707;43.618;25.342;2023-04-02T12:59:28;99263.88;;;20.26;47.89
7333;BME280;3707;43.618;25.342;2023-04-02T13:01:56;99265.09;;;20.41;48.23
7333;BME280;3707;43.618;25.342;2023-04-02T13:04:25;99224.34;;;20.05;47.61
7333;BME280;3707;43.618;25.342;2023-04-02T13:06:52;99263.28;;;19.95;48.62
7333;BME280;3707;43.618;25.342;2023-04-02T13:09:28;99263.84;;;19.80;47.71
7333;BME280;3707;43.618;25.342;2023-04-02T13:11:56;99268.44;;;19.49;48.35
7333;BME280;3707;43.618;25.342;2023-04-02T13:14:23;99267.88;;;19.39;48.23
7333;BME280;3707;43.618;25.342;2023-04-02T13:16:51;99274.69;;;19.46;47.51
7333;BME280;3707;43.618;25.342;2023-04-02T13:19:27;99233.59;;;19.44;47.22
7333;BME280;3707;43.618;25.342;2023-04-02T13:21:56;99266.31;;;19.60;47.08
7333;BME280;3707;43.618;25.342;2023-04-02T13:24:24;99260.00;;;19.65;47.23
7333;BME280;3707;43.618;25.342;2023-04-02T13:26:53;99262.19;;;19.53;48.02
7333;BME280;3707;43.618;25.342;2023-04-02T13:29:26;99248.16;;;19.52;47.65
7333;BME280;3707;43.618;25.342;2023-04-02T13:31:55;99260.06;;;19.62;47.23
7333;BME280;3707;43.618;25.342;2023-04-02T13:34:22;99266.16;;;19.64;47.25
7333;BME280;3707;43.618;25.342;2023-04-02T13:36:50;99245.41;;;19.80;49.27